Time;durP1;ratioP1;P1;durP2;ratioP2;P2;SDS_P1;SDS_P2;PMS_P1;PMS_P2;Temp;Humidity;BMP_temperature;BMP_pressure;BME280_temperature;BME280_humidity;BME280_pressure;Samples;Min_cycle;Max_cycle;Signal;HPM_P1;HPM_P2
2022/06/29 00:00:32;;;;;;;16.25;6.18;;;29.30;64.90;;;;;;5074539;28;20071;-65
2022/06/29 00:02:58;;;;;;;12.85;5.20;;;29.30;64.40;;;;;;5074559;28;20047;-66
2022/06/29 00:05:25;;;;;;;18.63;5.97;;;29.30;63.40;;;;;;5074461;28;20457;-64
2022/06/29 00:07:53;;;;;;;11.63;6.18;;;29.30;62.60;;;;;;5074788;28;20472;-64
2022/06/29 00:10:20;;;;;;;10.45;5.90;;;29.30;63.10;;;;;;5074700;28;20097;-64
2022/06/29 00:12:47;;;;;;;13.20;5.55;;;29.40;63.30;;;;;;5074314;28;20102;-64
2022/06/29 00:15:14;;;;;;;11.88;6.25;;;29.40;62.30;;;;;;5074453;28;20048;-66
2022/06/29 00:17:40;;;;;;;9.43;5.25;;;29.50;61.30;;;;;;5074629;28;20033;-66
2022/06/29 00:20:10;;;;;;;12.57;6.03;;;29.50;61.40;;;;;;5074065;28;20030;-65
2022/06/29 00:22:36;;;;;;;11.30;4.93;;;29.50;60.70;;;;;;5074514;28;20372;-64
2022/06/29 00:25:03;;;;;;;12.13;5.30;;;29.60;60.40;;;;;;5074397;28;20047;-64
2022/06/29 00:27:29;;;;;;;9.00;5.00;;;29.60;60.40;;;;;;5073899;28;20113;-64
2022/06/29 00:29:55;;;;;;;10.25;5.60;;;29.70;60.40;;;;;;5074292;28;20452;-65
2022/06/29 00:32:20;;;;;;;17.50;5.50;;;29.60;60.90;;;;;;5073783;28;20127;-64
2022/06/29 00:34:46;;;;;;;12.32;5.53;;;29.50;61.90;;;;;;5074382;28;20386;-65
2022/06/29 00:37:12;;;;;;;17.33;5.38;;;29.50;62.00;;;;;;5074082;28;20025;-66
2022/06/29 00:39:38;;;;;;;10.48;5.25;;;29.50;62.10;;;;;;5074024;28;20111;-66
2022/06/29 00:42:04;;;;;;;11.57;5.00;;;29.40;61.90;;;;;;5073763;28;20033;-65
2022/06/29 00:44:30;;;;;;;11.70;5.50;;;29.40;62.40;;;;;;5073709;28;20043;-65
2022/06/29 00:47:01;;;;;;;7.43;5.07;;;29.40;62.50;;;;;;5073744;28;20047;-66
2022/06/29 00:49:29;;;;;;;15.90;5.45;;;29.40;62.70;;;;;;5073804;28;20029;-64
2022/06/29 00:52:07;;;;;;;13.80;4.97;;;29.30;62.50;;;;;;5073723;28;20090;-65
2022/06/29 00:54:51;;;;;;;9.43;5.45;;;29.30;62.50;;;;;;5073507;28;20044;-65
2022/06/29 00:57:28;;;;;;;12.52;5.65;;;29.40;62.40;;;;;;5073629;28;20517;-66
2022/06/29 00:59:56;;;;;;;12.95;5.47;;;29.40;62.70;;;;;;5070150;28;20115;-65
2022/06/29 01:02:24;;;;;;;10.80;5.30;;;29.30;62.70;;;;;;5071078;28;20036;-65
2022/06/29 01:04:51;;;;;;;13.52;6.25;;;29.30;62.90;;;;;;5071860;28;20098;-64
2022/06/29 01:07:19;;;;;;;13.75;5.47;;;29.20;63.10;;;;;;5073303;28;20036;-64
2022/06/29 01:09:45;;;;;;;12.20;5.68;;;29.20;63.70;;;;;;5073374;28;20037;-65
2022/06/29 01:12:12;;;;;;;8.77;5.32;;;29.10;63.40;;;;;;5073304;28;20040;-66
2022/06/29 01:14:41;;;;;;;12.00;5.70;;;29.10;63.40;;;;;;5072954;28;20056;-65
2022/06/29 01:17:07;;;;;;;8.73;5.85;;;29.10;63.50;;;;;;5073084;28;20099;-65
2022/06/29 01:19:32;;;;;;;12.20;5.25;;;29.10;63.20;;;;;;5073199;28;20036;-65
2022/06/29 01:22:07;;;;;;;14.40;6.18;;;29.10;63.60;;;;;;5073085;28;20460;-66
2022/06/29 01:24:33;;;;;;;9.98;6.20;;;29.00;64.20;;;;;;5073185;28;20112;-64
2022/06/29 01:26:59;;;;;;;14.75;6.00;;;28.90;65.50;;;;;;5072975;28;20071;-64
2022/06/29 01:29:24;;;;;;;11.02;5.72;;;28.80;66.00;;;;;;5072669;28;20036;-64
2022/06/29 01:31:55;;;;;;;14.60;5.57;;;28.80;66.00;;;;;;5072619;28;20040;-65
2022/06/29 01:34:21;;;;;;;11.40;6.10;;;28.80;66.30;;;;;;5072739;28;20131;-66
2022/06/29 01:36:46;;;;;;;17.58;6.00;;;28.80;66.50;;;;;;5072683;28;20045;-66
2022/06/29 01:39:12;;;;;;;13.90;6.20;;;28.80;66.90;;;;;;5072656;28;20035;-65
2022/06/29 01:41:38;;;;;;;12.02;6.20;;;28.80;66.80;;;;;;5073155;28;20080;-66
2022/06/29 01:44:04;;;;;;;13.55;5.72;;;28.80;66.40;;;;;;5073027;28;20183;-65
2022/06/29 01:46:29;;;;;;;17.60;5.93;;;28.80;66.10;;;;;;5072856;28;20048;-64
2022/06/29 01:48:55;;;;;;;11.77;5.50;;;28.70;65.80;;;;;;5072835;28;20063;-65
2022/06/29 01:51:21;;;;;;;10.95;6.30;;;28.70;65.70;;;;;;5072771;28;20044;-66
2022/06/29 01:53:47;;;;;;;16.95;5.90;;;28.70;65.40;;;;;;5072625;28;20387;-65
2022/06/29 01:56:12;;;;;;;9.75;5.50;;;28.70;65.60;;;;;;5072644;28;20441;-66
2022/06/29 01:58:38;;;;;;;15.48;5.57;;;28.70;65.40;;;;;;5072785;28;20036;-64
2022/06/29 02:01:04;;;;;;;14.77;5.28;;;28.70;65.20;;;;;;5072649;28;20391;-65
2022/06/29 02:03:30;;;;;;;11.32;5.35;;;28.70;64.80;;;;;;5072738;28;20052;-64
2022/06/29 02:05:55;;;;;;;10.30;5.03;;;28.70;64.70;;;;;;5072507;28;20037;-64
2022/06/29 02:08:21;;;;;;;9.20;5.03;;;28.70;64.00;;;;;;5072848;28;20541;-64
2022/06/29 02:10:47;;;;;;;11.50;4.82;;;28.70;63.50;;;;;;5072940;28;20040;-64
2022/06/29 02:13:12;;;;;;;7.03;4.90;;;28.80;63.30;;;;;;5072439;28;20432;-65
2022/06/29 02:15:38;;;;;;;15.50;4.90;;;28.80;63.10;;;;;;5072581;28;20033;-64
2022/06/29 02:18:04;;;;;;;14.85;5.18;;;28.80;63.00;;;;;;5072683;28;20036;-64
2022/06/29 02:20:29;;;;;;;12.93;4.75;;;28.80;62.90;;;;;;5072520;28;20032;-64
2022/06/29 02:22:55;;;;;;;14.15;4.70;;;28.80;62.80;;;;;;5072630;28;20037;-66
2022/06/29 02:25:21;;;;;;;13.90;4.68;;;28.80;62.50;;;;;;5072600;28;20036;-65
2022/06/29 02:27:47;;;;;;;9.77;4.10;;;28.80;62.30;;;;;;5072598;28;20059;-66
2022/06/29 02:30:14;;;;;;;11.70;4.38;;;28.80;62.10;;;;;;5072549;28;20037;-65
2022/06/29 02:35:45;;;;;;;16.63;5.18;;;28.70;62.20;;;;;;5030064;28;20091;-64
2022/06/29 02:38:11;;;;;;;10.68;4.50;;;28.80;62.00;;;;;;5030171;28;20038;-65
2022/06/29 02:40:37;;;;;;;10.10;4.68;;;28.80;61.80;;;;;;5049710;28;20036;-67
2022/06/29 02:43:02;;;;;;;11.35;4.75;;;28.80;61.70;;;;;;5072514;28;20128;-64
2022/06/29 02:45:28;;;;;;;18.02;4.65;;;28.80;61.70;;;;;;5075509;28;20220;-64
2022/06/29 02:47:54;;;;;;;14.27;4.53;;;28.80;61.70;;;;;;5075737;28;20032;-64
2022/06/29 02:50:19;;;;;;;15.60;4.70;;;28.80;61.40;;;;;;5076080;28;20024;-65
2022/06/29 02:52:45;;;;;;;14.55;4.15;;;28.80;61.20;;;;;;5076278;28;20048;-64
2022/06/29 02:55:11;;;;;;;23.92;6.50;;;28.90;61.80;;;;;;5076006;28;20429;-65
2022/06/29 02:57:36;;;;;;;18.05;5.85;;;28.80;64.70;;;;;;5075808;28;20041;-66
2022/06/29 03:00:03;;;;;;;17.50;6.72;;;28.80;68.60;;;;;;5076110;28;20025;-65
2022/06/29 03:02:29;;;;;;;14.73;6.60;;;28.60;71.30;;;;;;5075806;28;20040;-65
2022/06/29 03:04:54;;;;;;;12.82;6.22;;;28.40;72.60;;;;;;5076013;28;20103;-66
2022/06/29 03:07:20;;;;;;;19.52;6.78;;;28.30;73.70;;;;;;5075751;28;20044;-64
2022/06/29 03:09:46;;;;;;;16.75;6.75;;;28.10;74.20;;;;;;5075609;28;20040;-66
2022/06/29 03:12:11;;;;;;;16.10;6.80;;;28.00;74.30;;;;;;5075550;28;20059;-66
2022/06/29 03:14:37;;;;;;;11.48;5.75;;;27.90;74.90;;;;;;5075648;28;20035;-64
2022/06/29 03:17:03;;;;;;;13.80;6.10;;;27.80;74.90;;;;;;5075800;28;20032;-65
2022/06/29 03:19:28;;;;;;;15.95;5.78;;;27.70;74.00;;;;;;5075558;28;20040;-64
2022/06/29 03:21:54;;;;;;;10.35;5.63;;;27.70;74.30;;;;;;5075635;28;20097;-64
2022/06/29 03:24:20;;;;;;;11.05;5.35;;;27.50;74.20;;;;;;5075518;28;20094;-65
2022/06/29 03:26:45;;;;;;;14.75;7.10;;;27.50;74.10;;;;;;5075362;28;20044;-64
2022/06/29 03:29:11;;;;;;;13.10;5.63;;;27.50;73.50;;;;;;5075185;28;20021;-65
2022/06/29 03:31:37;;;;;;;14.98;5.55;;;27.40;72.50;;;;;;5075230;28;20044;-66
2022/06/29 03:34:02;;;;;;;10.57;5.50;;;27.50;71.40;;;;;;5075184;28;20123;-65
2022/06/29 03:36:29;;;;;;;12.18;5.43;;;27.50;70.80;;;;;;5075358;28;20064;-65
2022/06/29 03:38:55;;;;;;;9.55;5.18;;;27.50;71.30;;;;;;5075062;28;20033;-64
2022/06/29 03:41:21;;;;;;;14.93;4.70;;;27.50;71.10;;;;;;5075023;28;20032;-64
2022/06/29 03:43:46;;;;;;;5.70;4.53;;;27.50;70.50;;;;;;5075343;28;20036;-67
2022/06/29 03:46:12;;;;;;;13.02;4.80;;;27.50;71.00;;;;;;5075212;28;20103;-66
2022/06/29 03:48:38;;;;;;;11.93;5.25;;;27.50;70.90;;;;;;5075157;28;20060;-66
2022/06/29 03:51:03;;;;;;;13.52;5.05;;;27.50;70.80;;;;;;5075000;28;20048;-66
2022/06/29 03:53:29;;;;;;;11.15;4.97;;;27.50;69.80;;;;;;5074916;28;20388;-64
2022/06/29 03:55:56;;;;;;;8.90;4.93;;;27.50;70.70;;;;;;5074469;28;20037;-64
2022/06/29 03:58:22;;;;;;;14.75;5.30;;;27.50;69.10;;;;;;5074988;28;20091;-64
2022/06/29 04:00:47;;;;;;;8.93;4.68;;;27.50;68.60;;;;;;5074671;28;20071;-64
2022/06/29 04:03:13;;;;;;;10.45;4.80;;;27.50;68.60;;;;;;5074669;28;20032;-64
2022/06/29 04:05:39;;;;;;;7.43;4.15;;;27.60;69.20;;;;;;5074321;28;20028;-65
2022/06/29 04:08:04;;;;;;;14.77;4.60;;;27.60;68.00;;;;;;5074684;28;20032;-66
2022/06/29 04:10:30;;;;;;;6.43;3.92;;;27.60;67.30;;;;;;5074401;28;20032;-66
2022/06/29 04:12:56;;;;;;;11.45;4.72;;;27.60;67.70;;;;;;5074615;28;20075;-65
2022/06/29 04:15:22;;;;;;;11.73;4.63;;;27.60;67.10;;;;;;5074426;28;20035;-63
2022/06/29 04:17:47;;;;;;;12.77;4.47;;;27.70;66.20;;;;;;5074142;28;20513;-65
2022/06/29 04:21:05;;;;;;;9.30;4.07;;;27.80;65.70;;;;;;5074447;28;20036;-66
2022/06/29 04:23:02;;;;;;;10.20;4.45;;;27.80;65.50;;;;;;5074276;28;20525;-64
2022/06/29 04:25:28;;;;;;;14.23;4.40;;;27.90;65.10;;;;;;5074500;28;20037;-65
2022/06/29 04:27:54;;;;;;;16.40;4.40;;;28.00;64.80;;;;;;5074101;28;20074;-64
2022/06/29 04:30:20;;;;;;;8.80;4.47;;;28.00;64.70;;;;;;5073887;28;20433;-63
2022/06/29 04:32:46;;;;;;;9.60;4.30;;;28.00;64.60;;;;;;5073782;28;20083;-66
2022/06/29 04:35:12;;;;;;;10.05;4.38;;;28.00;64.80;;;;;;5074071;28;20452;-66
2022/06/29 04:37:38;;;;;;;15.85;4.82;;;28.00;65.70;;;;;;5073954;28;20039;-64
2022/06/29 04:40:04;;;;;;;11.68;4.55;;;28.00;65.70;;;;;;5073951;28;20119;-66
2022/06/29 04:42:30;;;;;;;11.82;4.45;;;28.00;65.10;;;;;;5073948;28;20033;-66
2022/06/29 04:44:55;;;;;;;8.05;4.55;;;28.10;64.50;;;;;;5073813;28;20089;-64
2022/06/29 04:47:21;;;;;;;14.43;4.13;;;28.20;63.60;;;;;;5073769;28;20123;-64
2022/06/29 04:49:47;;;;;;;12.48;4.32;;;28.20;63.40;;;;;;5073603;28;20047;-65
2022/06/29 04:52:12;;;;;;;17.27;5.15;;;28.20;62.80;;;;;;5073566;28;20387;-64
2022/06/29 04:54:39;;;;;;;8.10;4.43;;;28.30;63.10;;;;;;5073445;28;20033;-64
2022/06/29 04:57:06;;;;;;;12.43;4.50;;;28.30;63.30;;;;;;5073679;28;20509;-64
2022/06/29 04:59:33;;;;;;;13.30;4.68;;;28.30;62.90;;;;;;5073640;28;20051;-64
2022/06/29 05:01:59;;;;;;;8.15;4.00;;;28.30;62.90;;;;;;5073662;28;20041;-64
2022/06/29 05:04:24;;;;;;;7.93;3.75;;;28.40;62.50;;;;;;5073523;28;20166;-63
2022/06/29 05:06:50;;;;;;;12.82;3.92;;;28.40;62.10;;;;;;5073247;28;20031;-64
2022/06/29 05:09:16;;;;;;;13.40;4.20;;;28.40;62.00;;;;;;5073324;28;20079;-65
2022/06/29 05:11:42;;;;;;;12.73;4.30;;;28.40;61.80;;;;;;5073201;28;20490;-63
2022/06/29 05:14:10;;;;;;;11.45;4.38;;;28.40;62.00;;;;;;5073120;28;20039;-65
2022/06/29 05:16:36;;;;;;;8.52;4.18;;;28.50;61.60;;;;;;5073172;28;20113;-64
2022/06/29 05:19:02;;;;;;;13.00;4.38;;;28.50;61.50;;;;;;5072979;28;20063;-65
2022/06/29 05:21:28;;;;;;;9.50;4.00;;;28.50;61.40;;;;;;5073014;28;20028;-65
2022/06/29 05:23:53;;;;;;;14.10;4.32;;;28.50;61.70;;;;;;5073199;28;20028;-65
2022/06/29 05:26:19;;;;;;;13.30;4.20;;;28.60;62.10;;;;;;5073321;28;20441;-66
2022/06/29 05:28:45;;;;;;;10.88;4.22;;;28.60;61.70;;;;;;5072929;28;20120;-65
2022/06/29 05:31:10;;;;;;;18.85;4.70;;;28.50;61.50;;;;;;5073157;28;20098;-65
2022/06/29 05:33:36;;;;;;;13.07;4.38;;;28.60;61.30;;;;;;5072779;28;20052;-65
2022/06/29 05:36:04;;;;;;;15.40;4.10;;;28.60;61.60;;;;;;5073298;28;20115;-66
2022/06/29 05:38:31;;;;;;;7.25;4.05;;;28.60;61.60;;;;;;5072849;28;20488;-64
2022/06/29 05:40:57;;;;;;;9.70;4.43;;;28.60;61.70;;;;;;5071248;28;20048;-64
2022/06/29 05:43:23;;;;;;;12.70;4.70;;;28.60;61.20;;;;;;5072483;28;20068;-66
2022/06/29 05:45:51;;;;;;;8.63;4.18;;;28.70;61.50;;;;;;5072601;28;20039;-67
2022/06/29 05:48:16;;;;;;;11.80;3.92;;;28.70;61.50;;;;;;5072046;28;20623;-63
2022/06/29 05:50:42;;;;;;;7.30;4.32;;;28.70;61.60;;;;;;5071961;28;20056;-64
2022/06/29 05:53:08;;;;;;;10.35;4.15;;;28.70;61.70;;;;;;5072665;28;20045;-66
2022/06/29 05:55:33;;;;;;;13.43;4.13;;;28.80;61.20;;;;;;5072511;28;20036;-64
2022/06/29 05:57:59;;;;;;;7.88;4.47;;;28.80;61.20;;;;;;5072431;28;20542;-64
2022/06/29 06:00:25;;;;;;;10.52;4.55;;;28.80;61.10;;;;;;5072442;28;20033;-64
2022/06/29 06:02:51;;;;;;;10.18;4.32;;;28.80;61.00;;;;;;5071910;28;20083;-65
2022/06/29 06:05:17;;;;;;;11.10;4.32;;;28.80;60.60;;;;;;5045201;28;20045;-66
2022/06/29 06:07:43;;;;;;;9.50;4.18;;;28.90;60.70;;;;;;5072385;28;20028;-69
2022/06/29 06:10:09;;;;;;;8.15;3.75;;;28.90;61.10;;;;;;5072402;28;20040;-67
2022/06/29 06:12:34;;;;;;;13.35;5.15;;;29.00;60.60;;;;;;5071745;28;20113;-67
2022/06/29 06:15:01;;;;;;;11.88;4.60;;;29.00;60.90;;;;;;5070257;28;20033;-67
2022/06/29 06:17:28;;;;;;;7.32;4.20;;;29.00;60.70;;;;;;5071989;28;20067;-67
2022/06/29 06:19:55;;;;;;;12.38;4.22;;;29.10;60.70;;;;;;5074620;28;20025;-68
2022/06/29 06:22:21;;;;;;;11.93;4.07;;;29.10;61.00;;;;;;5076265;28;20033;-70
2022/06/29 06:24:47;;;;;;;12.40;4.35;;;29.20;60.50;;;;;;5075181;28;20041;-66
2022/06/29 06:27:14;;;;;;;16.13;4.53;;;29.20;60.30;;;;;;5075439;28;20032;-62
2022/06/29 06:29:39;;;;;;;11.20;4.45;;;29.20;59.70;;;;;;5076121;28;20029;-65
2022/06/29 06:32:05;;;;;;;11.10;4.57;;;29.20;59.50;;;;;;5075135;28;20529;-66
2022/06/29 06:34:32;;;;;;;18.92;4.85;;;29.20;60.00;;;;;;5075906;28;20506;-68
2022/06/29 06:36:59;;;;;;;12.70;4.75;;;29.30;60.30;;;;;;5075902;28;20033;-67
2022/06/29 06:39:25;;;;;;;18.67;6.32;;;29.30;59.90;;;;;;5075746;28;20041;-69
2022/06/29 06:41:51;;;;;;;16.40;4.53;;;29.20;59.80;;;;;;5075862;28;20182;-68
2022/06/29 06:44:17;;;;;;;13.00;4.40;;;29.20;59.70;;;;;;5075927;28;20103;-68
2022/06/29 06:46:48;;;;;;;10.85;3.90;;;29.30;59.90;;;;;;5075481;28;20040;-70
2022/06/29 06:49:15;;;;;;;14.18;4.78;;;29.30;59.50;;;;;;5075613;28;20053;-71
2022/06/29 06:51:41;;;;;;;10.90;4.55;;;29.30;59.50;;;;;;5076156;28;20040;-67
2022/06/29 06:54:06;;;;;;;14.60;4.32;;;29.30;59.90;;;;;;5076085;28;20086;-68
2022/06/29 06:56:32;;;;;;;13.77;4.75;;;29.30;59.90;;;;;;5075862;28;20375;-64
2022/06/29 06:58:58;;;;;;;10.25;4.78;;;29.30;60.30;;;;;;5075324;28;20029;-67
2022/06/29 07:01:24;;;;;;;9.30;4.35;;;29.30;60.00;;;;;;5075643;28;20068;-66
2022/06/29 07:03:50;;;;;;;14.18;4.38;;;29.40;59.80;;;;;;5075787;28;20036;-66
2022/06/29 07:06:16;;;;;;;11.98;4.38;;;29.40;59.50;;;;;;5075798;28;20098;-65
2022/06/29 07:08:41;;;;;;;14.40;4.78;;;29.40;60.10;;;;;;5075893;28;20036;-65
2022/06/29 07:11:08;;;;;;;16.98;5.07;;;29.40;59.80;;;;;;5075583;28;20070;-65
2022/06/29 07:13:34;;;;;;;12.05;4.78;;;29.40;60.00;;;;;;5075237;28;20035;-65
2022/06/29 07:16:03;;;;;;;13.05;5.40;;;29.40;59.90;;;;;;5075025;28;20036;-68
2022/06/29 07:18:29;;;;;;;13.90;5.00;;;29.40;59.70;;;;;;5075893;28;20098;-68
2022/06/29 07:20:55;;;;;;;15.70;5.35;;;29.40;60.00;;;;;;5075420;28;20040;-66
2022/06/29 07:23:21;;;;;;;8.45;4.40;;;29.40;60.40;;;;;;5074529;28;20032;-65
2022/06/29 07:25:47;;;;;;;14.98;4.38;;;29.50;60.40;;;;;;5075449;28;20052;-70
2022/06/29 07:28:13;;;;;;;13.40;4.60;;;29.50;59.50;;;;;;5075287;28;20506;-66
2022/06/29 07:30:38;;;;;;;11.10;5.00;;;29.50;59.30;;;;;;5074669;28;20043;-65
2022/06/29 07:33:04;;;;;;;21.10;4.70;;;29.50;59.40;;;;;;5075245;28;20049;-65
2022/06/29 07:35:30;;;;;;;20.60;5.30;;;29.50;59.80;;;;;;5075199;28;20039;-65
2022/06/29 07:37:56;;;;;;;17.17;5.82;;;29.60;60.30;;;;;;5075294;28;20410;-63
2022/06/29 07:40:22;;;;;;;74.47;13.85;;;29.50;60.10;;;;;;5075060;28;20039;-64
2022/06/29 07:42:48;;;;;;;19.65;5.93;;;29.50;60.80;;;;;;5075516;28;20083;-64
2022/06/29 07:45:14;;;;;;;41.58;8.15;;;29.60;60.40;;;;;;5074844;28;20039;-63
2022/06/29 07:47:40;;;;;;;174.52;22.48;;;29.50;60.80;;;;;;5075059;28;20399;-64
2022/06/29 07:50:06;;;;;;;46.33;7.22;;;29.50;63.80;;;;;;5075248;28;20037;-64
2022/06/29 07:52:33;;;;;;;40.83;6.95;;;29.50;64.00;;;;;;5075139;28;20047;-70
2022/06/29 07:55:00;;;;;;;43.80;7.60;;;29.50;63.40;;;;;;5074877;28;20033;-67
2022/06/29 07:57:26;;;;;;;44.60;7.70;;;29.40;63.80;;;;;;5074818;28;20041;-65
2022/06/29 07:59:52;;;;;;;41.50;7.43;;;29.40;63.40;;;;;;5075020;28;20039;-65
2022/06/29 08:02:17;;;;;;;41.40;7.60;;;29.40;63.60;;;;;;5074757;28;20033;-65
2022/06/29 08:04:43;;;;;;;37.47;7.15;;;29.30;63.40;;;;;;5074586;28;20033;-66
2022/06/29 08:07:09;;;;;;;35.05;7.80;;;29.40;63.50;;;;;;5074685;28;20411;-66
2022/06/29 08:09:35;;;;;;;47.20;8.60;;;29.40;63.60;;;;;;5074316;28;20036;-65
2022/06/29 08:12:02;;;;;;;43.60;7.53;;;29.30;64.00;;;;;;5074339;28;20043;-70
2022/06/29 08:14:27;;;;;;;37.03;7.45;;;29.30;63.80;;;;;;5074593;28;20037;-62
2022/06/29 08:16:53;;;;;;;41.72;7.28;;;29.40;63.80;;;;;;5074478;28;20112;-67
2022/06/29 08:19:18;;;;;;;43.30;8.43;;;29.30;64.20;;;;;;5074250;28;20048;-63
2022/06/29 08:21:44;;;;;;;53.60;7.90;;;29.40;63.90;;;;;;5074594;28;20029;-63
2022/06/29 08:24:10;;;;;;;36.95;7.13;;;29.40;63.90;;;;;;5074407;28;20040;-64
2022/06/29 08:26:35;;;;;;;47.72;8.32;;;29.50;65.20;;;;;;5074145;28;20033;-64
2022/06/29 08:29:01;;;;;;;36.58;7.57;;;29.60;64.30;;;;;;5074057;28;20028;-69
2022/06/29 08:31:27;;;;;;;48.50;6.90;;;29.60;63.70;;;;;;5072168;28;20045;-65
2022/06/29 08:33:52;;;;;;;38.78;7.13;;;29.70;64.40;;;;;;5072795;28;20041;-63
2022/06/29 08:36:18;;;;;;;47.08;7.53;;;29.70;64.50;;;;;;5072038;28;20048;-64
2022/06/29 08:38:44;;;;;;;41.17;7.65;;;29.80;63.40;;;;;;5071864;28;20035;-64
2022/06/29 08:41:12;;;;;;;43.42;7.90;;;29.90;64.90;;;;;;5071966;28;20036;-63
2022/06/29 08:43:38;;;;;;;40.58;6.82;;;29.90;65.60;;;;;;5072674;28;20037;-69
2022/06/29 08:46:03;;;;;;;40.00;9.25;;;30.00;66.30;;;;;;5073005;28;20039;-65
2022/06/29 08:48:30;;;;;;;51.88;9.13;;;29.90;65.60;;;;;;5072994;28;20039;-62
2022/06/29 08:50:56;;;;;;;41.28;8.80;;;30.00;65.50;;;;;;5071842;28;20118;-63
2022/06/29 08:53:23;;;;;;;46.08;8.15;;;30.00;65.60;;;;;;5071899;28;20498;-64
2022/06/29 08:55:50;;;;;;;46.95;8.02;;;30.00;65.60;;;;;;5072279;28;20040;-64
2022/06/29 08:58:23;;;;;;;37.28;7.35;;;30.00;66.00;;;;;;5072492;28;20460;-65
2022/06/29 09:00:50;;;;;;;36.47;8.27;;;30.00;66.20;;;;;;5072752;28;20371;-65
2022/06/29 09:03:20;;;;;;;42.65;8.95;;;30.10;66.60;;;;;;5072535;28;20097;-63
2022/06/29 09:05:51;;;;;;;39.85;8.38;;;30.10;66.30;;;;;;5072587;28;20032;-64
2022/06/29 09:08:18;;;;;;;41.13;7.82;;;30.20;66.70;;;;;;5072327;28;20047;-64
2022/06/29 09:10:45;;;;;;;44.17;8.80;;;30.30;65.00;;;;;;5072635;28;20387;-65
2022/06/29 09:13:11;;;;;;;45.00;7.93;;;30.30;65.50;;;;;;5072574;28;20032;-64
2022/06/29 09:15:39;;;;;;;47.35;9.27;;;30.30;65.80;;;;;;5072588;28;20475;-64
2022/06/29 09:18:24;;;;;;;38.88;8.10;;;30.20;66.10;;;;;;5072608;28;20064;-64
2022/06/29 09:20:56;;;;;;;38.83;7.25;;;30.30;64.50;;;;;;5072408;28;20028;-65
2022/06/29 09:23:23;;;;;;;44.65;8.57;;;30.30;65.00;;;;;;5072634;28;20391;-70
2022/06/29 09:25:49;;;;;;;37.75;7.68;;;30.20;64.50;;;;;;5071918;28;20032;-64
2022/06/29 09:28:34;;;;;;;38.53;8.98;;;30.20;63.20;;;;;;5072388;28;20552;-64
2022/06/29 09:31:00;;;;;;;45.65;8.50;;;30.10;63.50;;;;;;5072503;28;20056;-64
2022/06/29 09:33:28;;;;;;;36.78;7.97;;;30.00;64.50;;;;;;5032282;28;1144733;-65
2022/06/29 09:36:04;;;;;;;37.42;7.53;;;30.00;65.30;;;;;;5072741;28;20041;-64
2022/06/29 09:38:30;;;;;;;40.78;7.30;;;29.90;66.00;;;;;;5073006;28;20033;-64
2022/06/29 09:41:09;;;;;;;37.17;7.00;;;30.00;66.70;;;;;;5072851;28;20036;-64
2022/06/29 09:43:40;;;;;;;40.97;8.27;;;30.10;64.20;;;;;;5072821;28;20113;-64
2022/06/29 09:46:07;;;;;;;33.97;7.43;;;30.10;63.90;;;;;;5072282;28;20559;-65
2022/06/29 09:48:34;;;;;;;47.55;8.52;;;30.20;63.20;;;;;;5072883;28;20127;-71
2022/06/29 09:51:01;;;;;;;33.35;7.15;;;30.20;62.40;;;;;;5072730;28;20041;-63
2022/06/29 09:53:38;;;;;;;37.35;8.07;;;30.30;62.40;;;;;;5072681;28;20037;-63
2022/06/29 09:56:06;;;;;;;41.03;8.30;;;30.30;62.70;;;;;;5072517;28;20047;-64
2022/06/29 09:58:44;;;;;;;44.50;8.40;;;30.40;61.90;;;;;;5072455;28;20029;-64
2022/06/29 10:03:56;;;;;;;37.47;6.70;;;30.40;61.60;;;;;;5072783;28;20027;-64
2022/06/29 10:06:23;;;;;;;35.00;6.95;;;30.30;61.30;;;;;;5072753;28;20542;-64
2022/06/29 10:08:49;;;;;;;42.45;8.25;;;30.30;60.70;;;;;;5072362;28;20033;-64
2022/06/29 10:14:47;;;;;;;33.55;6.68;;;30.40;60.80;;;;;;5072711;28;20040;-63
2022/06/29 10:17:46;;;;;;;34.72;6.63;;;30.40;60.20;;;;;;5072550;28;20036;-64
2022/06/29 10:20:29;;;;;;;27.90;5.97;;;30.50;60.40;;;;;;5072472;28;20047;-71
2022/06/29 10:22:55;;;;;;;29.65;5.38;;;30.50;59.20;;;;;;5072409;28;20509;-65
2022/06/29 10:25:27;;;;;;;27.17;5.60;;;30.40;58.30;;;;;;5072283;28;20029;-64
2022/06/29 10:28:21;;;;;;;35.10;5.70;;;30.50;57.80;;;;;;5072256;28;20032;-64
2022/06/29 10:30:48;;;;;;;30.02;6.50;;;30.50;58.80;;;;;;5072348;28;20032;-64
2022/06/29 10:33:29;;;;;;;31.92;6.15;;;30.50;59.50;;;;;;5072196;28;20056;-64
2022/06/29 10:35:59;;;;;;;31.08;5.50;;;30.40;57.70;;;;;;5072285;28;20490;-64
2022/06/29 10:38:25;;;;;;;44.67;6.67;;;30.50;58.60;;;;;;5072519;28;20041;-64
2022/06/29 10:43:07;;;;;;;23.50;5.65;;;30.50;59.60;;;;;;5072428;28;20032;-64
2022/06/29 10:43:56;;;;;;;31.35;6.55;;;30.50;58.10;;;;;;5072314;28;20032;-65
2022/06/29 10:46:22;;;;;;;25.58;5.63;;;30.40;56.10;;;;;;5072218;28;20044;-65
2022/06/29 10:49:18;;;;;;;33.05;6.43;;;30.30;56.10;;;;;;5072334;28;20108;-64
2022/06/29 10:51:45;;;;;;;23.23;5.43;;;30.30;57.30;;;;;;5072183;28;20051;-66
2022/06/29 10:54:24;;;;;;;28.90;5.57;;;30.30;58.80;;;;;;5072215;28;20033;-64
2022/06/29 10:56:51;;;;;;;30.92;6.25;;;30.20;58.30;;;;;;5071974;28;20040;-70
2022/06/29 10:59:36;;;;;;;20.17;5.32;;;30.20;58.60;;;;;;5072411;28;20025;-64
2022/06/29 11:02:13;;;;;;;24.73;4.85;;;30.20;58.40;;;;;;5072295;28;20128;-64
2022/06/29 11:04:39;;;;;;;29.30;6.00;;;30.10;57.80;;;;;;5072514;28;20037;-64
2022/06/29 11:12:50;;;;;;;17.05;3.78;;;29.90;54.80;;;;;;5074836;28;20520;-65
2022/06/29 11:15:42;;;;;;;20.92;4.75;;;29.90;55.70;;;;;;5074711;28;20040;-69
2022/06/29 11:18:10;;;;;;;28.08;5.88;;;29.90;56.60;;;;;;5075223;28;20067;-65
2022/06/29 11:20:36;;;;;;;20.30;4.50;;;29.80;58.00;;;;;;5075160;28;20379;-71
2022/06/29 11:23:02;;;;;;;23.10;4.35;;;29.80;58.30;;;;;;5075657;28;20025;-64
2022/06/29 11:25:38;;;;;;;16.45;3.60;;;29.80;58.30;;;;;;5075563;28;20075;-64
2022/06/29 11:28:04;;;;;;;17.70;3.88;;;29.70;56.60;;;;;;5074854;28;20032;-64
2022/06/29 11:30:30;;;;;;;21.38;4.20;;;29.70;57.60;;;;;;5075496;28;20067;-65
2022/06/29 11:32:57;;;;;;;19.15;3.90;;;29.70;58.20;;;;;;5075408;28;20076;-71
2022/06/29 11:35:25;;;;;;;21.77;4.22;;;29.70;57.20;;;;;;5074595;28;20471;-65
2022/06/29 11:38:01;;;;;;;24.55;4.57;;;29.70;57.40;;;;;;5074992;28;20047;-64
2022/06/29 11:40:34;;;;;;;25.63;4.22;;;29.70;58.30;;;;;;5075068;28;20025;-64
2022/06/29 11:43:12;;;;;;;25.00;4.15;;;29.70;57.10;;;;;;5075174;28;20040;-65
2022/06/29 11:45:40;;;;;;;19.65;4.38;;;29.80;56.30;;;;;;5075194;28;20089;-62
2022/06/29 11:48:26;;;;;;;25.95;4.68;;;29.80;57.40;;;;;;5074867;28;20115;-71
2022/06/29 11:50:59;;;;;;;20.75;5.07;;;29.80;56.60;;;;;;5073910;28;20375;-71
2022/06/29 11:53:38;;;;;;;25.23;6.38;;;29.70;57.40;;;;;;5075225;28;20064;-65
2022/06/29 11:56:17;;;;;;;22.95;5.45;;;29.70;56.90;;;;;;5075056;28;20529;-70
2022/06/29 11:58:51;;;;;;;26.98;5.75;;;29.70;57.20;;;;;;5074390;28;20037;-64
2022/06/29 12:01:19;;;;;;;21.60;5.07;;;29.70;57.20;;;;;;5073920;28;20490;-66
2022/06/29 12:03:49;;;;;;;20.15;4.88;;;29.70;56.60;;;;;;5074831;28;20060;-65
2022/06/29 12:06:16;;;;;;;21.33;5.47;;;29.60;56.70;;;;;;5074821;28;20074;-70
2022/06/29 12:08:42;;;;;;;23.05;4.65;;;29.70;57.90;;;;;;5075161;28;20040;-65
2022/06/29 12:11:07;;;;;;;26.50;4.93;;;29.60;60.20;;;;;;5074755;28;20036;-65
2022/06/29 12:13:33;;;;;;;25.70;5.32;;;29.60;58.50;;;;;;5074394;28;20037;-65
2022/06/29 12:15:59;;;;;;;23.70;4.72;;;29.50;57.70;;;;;;5073543;28;20079;-70
2022/06/29 12:18:25;;;;;;;21.52;4.50;;;29.50;58.30;;;;;;5073966;28;20053;-65
2022/06/29 12:20:50;;;;;;;21.67;4.07;;;29.50;58.10;;;;;;5074707;28;20029;-64
2022/06/29 12:23:17;;;;;;;27.90;4.72;;;29.40;57.60;;;;;;5074842;28;20040;-65
2022/06/29 12:25:43;;;;;;;23.83;4.50;;;29.40;58.50;;;;;;5074560;28;20036;-64
2022/06/29 12:28:09;;;;;;;15.70;4.20;;;29.30;57.70;;;;;;5074449;28;20045;-70
2022/06/29 12:30:35;;;;;;;20.92;4.32;;;29.40;58.50;;;;;;5073918;28;20040;-71
2022/06/29 12:33:02;;;;;;;23.83;4.60;;;29.30;58.40;;;;;;5074100;28;20041;-71
2022/06/29 12:35:28;;;;;;;22.20;4.90;;;29.30;58.20;;;;;;5073931;28;20107;-64
2022/06/29 12:37:57;;;;;;;22.45;4.60;;;29.30;58.70;;;;;;5073726;28;20037;-64
2022/06/29 12:40:24;;;;;;;26.98;5.50;;;29.20;58.70;;;;;;5074035;28;20037;-66
2022/06/29 12:42:52;;;;;;;19.73;4.20;;;29.30;58.30;;;;;;5071984;28;20517;-64
2022/06/29 12:45:17;;;;;;;25.83;5.20;;;29.20;58.30;;;;;;5072744;28;20455;-64
2022/06/29 12:47:43;;;;;;;15.75;4.07;;;29.20;58.80;;;;;;5072979;28;20031;-65
2022/06/29 12:50:09;;;;;;;27.88;5.30;;;29.20;60.30;;;;;;5072874;28;20037;-64
2022/06/29 12:52:35;;;;;;;22.95;4.60;;;29.20;58.30;;;;;;5072766;28;20079;-65
2022/06/29 12:55:01;;;;;;;20.92;4.40;;;29.10;58.70;;;;;;5071965;28;20380;-63